EDSBEGSS

Guest
Details From EDSB - Karlsruhe Baden Baden
To EGSS - London Stansted
Flight Number -
Tags Generated
Created
Modified
Stats Distance 354 nm / 655 km
Max Altitude 0 ft / 0 m
Waypoints 3
Social Downloads 2
Likes 0
Share VATSIM

Download

Looking for another format? Having issues loading an existing format? Contact us
Advertisement - Login to hide

Notes

Generated

Route

EDSB R2317 EGSS

ID Type Via Altitude (ft/m) Position (lat/lon) Dist (leg/tot) Name
O EDSB APT - 0 / 0 48.76783 / 8.06994 - / 0 nm
R2317 FIX - 0 / 0 51.87508 / 0.21993 353 / 353 nm
O EGSS APT - 0 / 0 51.87508 / 0.21993 0 / 353 nm

Altitude Profile

Advertisement - Login to hide

Weather


0- 5 10 15 20 25 30 35+ Temperature / °C

Clouds and Precipitation
Forecast for 2018-10-17 18:00 UTC. Updated 3 hours ago

Ground ~20,000 ft ~40,000 ft Winds

EDSB

Details ICAO EDSB (FKB)
Name Karlsruhe Baden-Baden
Region Germany - Civil
Timezone Europe/Berlin (UTC+2.0)
Stats Elevation 409 ft / 125 m (AMSL)
Location 48.779300° 8.080510°
Runways 1
Magnetic Variation 2.329° E

METAR

EDSB 171750Z 05008KT CAVOK 16/11 Q1017

Decode

TAF

TAF EDSB 171700Z 1718/1818 02004KT CAVOK TEMPO 1804/1807 3000 BR BECMG 1808/1810 02009KT

Decode

Departure Runways

ID Width Length Bearing (true/mag) Surface Threshold Overrun Markings Lighting
03 148 ft / 45 m 9,852 ft / 3,003 m 31.69° / 29.36° ASPHALT 856 ft / 261 m 190 ft / 58 m PREC-APP EDGE THRESHOLD MALS
21 148 ft / 45 m 9,852 ft / 3,003 m 211.70° / 209.37° ASPHALT 860 ft / 262 m 187 ft / 57 m PREC-APP EDGE THRESHOLD RAIL

EGSS

Details ICAO EGSS (STN)
Name London Stansted
Region United Kingdom
Timezone Europe/London (UTC+1.0)
Stats Elevation 348 ft / 106 m (AMSL)
Location 51.885100° 0.234986°
Runways 1
Magnetic Variation 0.238° W

METAR

EGSS 171750Z AUTO 01003KT 9999 FEW033 13/11 Q1021

Decode

TAF

TAF EGSS 171656Z 1718/1824 01005KT 9999 SCT035 PROB30 1803/1810 3000 BR BKN004

Decode

Destination Runways

ID Width Length Bearing (true/mag) Surface Threshold Overrun Markings Lighting
04 151 ft / 46 m 9,985 ft / 3,044 m 42.78° / 43.02° ASPHALT 974 ft / 297 m 0 ft / 0 m UK-PREC-APP CENTERLINE EDGE THRESHOLD CALVERT-ILS TDZ REIL-OMNI
22 151 ft / 46 m 9,985 ft / 3,044 m 222.81° / 223.04° ASPHALT 0 ft / 0 m 0 ft / 0 m UK-PREC-APP CENTERLINE EDGE THRESHOLD CALVERT-ILS TDZ REIL-OMNI

Approach Navaids

Runway Type Ident Frequency Range Bearing (true/mag) Slope Elevation
04 LOC-ILS ISED 110.50 MHz 18 nm / 33 km 42.80° / 43.04 ° - 348 ft / 106 m (AMSL)
04 DME ISED 110.50 MHz 18 nm / 33 km - - 348 ft / 106 m (AMSL)
04 GS ISED 110.50 MHz 10 nm / 19 km 42.80° / 43.04 ° 3.00° 348 ft / 106 m (AMSL)
22 GS ISX 110.50 MHz 10 nm / 19 km 222.80° / 223.04 ° 3.00° 348 ft / 106 m (AMSL)
22 DME ISX 110.50 MHz 18 nm / 33 km - - 348 ft / 106 m (AMSL)
22 LOC-ILS ISX 110.50 MHz 18 nm / 33 km 222.80° / 223.04 ° - 348 ft / 106 m (AMSL)

Popular Alternatives